Time;durP1;ratioP1;P1;durP2;ratioP2;P2;SDS_P1;SDS_P2;PMS_P1;PMS_P2;Temp;Humidity;BMP_temperature;BMP_pressure;BME280_temperature;BME280_humidity;BME280_pressure;Samples;Min_cycle;Max_cycle;Signal;HPM_P1;HPM_P2
2021/05/17 00:02:17;;;;;;;17.57;8.17;;;;;;;16.22;56.36;99453.62;125227;1102;104299;-76
2021/05/17 00:04:46;;;;;;;21.10;8.53;;;;;;;16.28;56.50;99452.69;125187;1102;104300;-76
2021/05/17 00:07:17;;;;;;;22.40;9.03;;;;;;;16.33;57.38;99450.89;125204;1103;104175;-76
2021/05/17 00:09:46;;;;;;;20.80;8.87;;;;;;;16.33;57.21;99448.25;125137;1102;104473;-78
2021/05/17 00:12:16;;;;;;;24.30;9.27;;;;;;;16.35;56.55;99443.84;125169;1102;104239;-76
2021/05/17 00:14:46;;;;;;;17.60;8.20;;;;;;;16.35;57.33;99446.49;125233;1102;104239;-76
2021/05/17 00:17:16;;;;;;;17.53;8.43;;;;;;;16.36;57.69;99440.29;125171;1102;104158;-76
2021/05/17 00:19:48;;;;;;;18.67;8.57;;;;;;;16.35;57.58;99433.26;125180;1102;104325;-75
2021/05/17 00:22:18;;;;;;;17.23;8.73;;;;;;;16.36;57.11;99437.64;125175;1100;104165;-76
2021/05/17 00:24:48;;;;;;;19.13;9.80;;;;;;;16.34;57.58;99429.71;125961;1099;104140;-76
2021/05/17 00:27:18;;;;;;;19.90;9.60;;;;;;;16.33;57.90;99419.13;125152;1102;104169;-77
2021/05/17 00:29:48;;;;;;;17.40;8.83;;;;;;;16.27;57.95;99417.41;125165;1102;104232;-77
2021/05/17 00:32:17;;;;;;;18.17;8.53;;;;;;;16.22;57.28;99420.95;125240;1099;101911;-77
2021/05/17 00:34:47;;;;;;;20.53;8.13;;;;;;;16.20;58.07;99415.67;125160;1099;104411;-77
2021/05/17 00:37:17;;;;;;;19.40;9.07;;;;;;;16.25;57.74;99413.00;125192;1099;104152;-77
2021/05/17 00:39:47;;;;;;;22.57;8.87;;;;;;;16.32;58.18;99417.39;126294;1099;104222;-77
2021/05/17 00:42:17;;;;;;;21.47;9.13;;;;;;;16.35;57.83;99418.25;126289;1099;104255;-77
2021/05/17 00:44:47;;;;;;;20.70;8.40;;;;;;;16.39;58.43;99416.45;126219;1099;103010;-76
2021/05/17 00:47:18;;;;;;;18.73;8.30;;;;;;;16.39;58.13;99411.16;125284;1099;104268;-77
2021/05/17 00:49:49;;;;;;;17.43;8.13;;;;;;;16.39;58.02;99416.45;125141;1099;102803;-77
2021/05/17 00:52:19;;;;;;;15.87;8.17;;;;;;;16.36;58.40;99408.52;125317;1102;104198;-77
2021/05/17 00:54:49;;;;;;;19.53;8.30;;;;;;;16.32;57.80;99405.02;125435;1102;104219;-77
2021/05/17 00:57:20;;;;;;;18.37;8.37;;;;;;;16.29;58.27;99405.04;125292;1102;104172;-77
2021/05/17 00:59:50;;;;;;;18.13;7.97;;;;;;;16.23;58.66;99412.14;126036;1099;104114;-77
2021/05/17 01:02:20;;;;;;;20.63;8.13;;;;;;;16.15;58.75;99402.45;125343;1100;104309;-76
2021/05/17 01:05:03;;;;;;;18.50;8.00;;;;;;;16.14;58.15;99407.75;125325;1102;104397;-76
2021/05/17 01:07:33;;;;;;;15.87;7.80;;;;;;;16.09;58.93;99404.26;125376;1099;104185;-76
2021/05/17 01:10:05;;;;;;;21.97;7.80;;;;;;;15.99;58.67;99404.30;126126;1099;104214;-77
2021/05/17 01:12:34;;;;;;;22.95;9.35;;;;;;;15.88;58.32;99402.56;125187;1102;104422;-76
2021/05/17 01:15:06;;;;;;;20.20;8.90;;;;;;;15.76;58.98;99398.17;125224;1101;104165;-76
2021/05/17 01:17:37;;;;;;;20.03;8.37;;;;;;;15.67;59.07;99390.27;125253;1102;104621;-76
2021/05/17 01:20:10;;;;;;;20.20;8.73;;;;;;;15.62;58.67;99388.50;125207;1102;104188;-76
2021/05/17 01:23:00;;;;;;;18.80;8.57;;;;;;;15.65;59.70;99379.70;125243;1100;104243;-76
2021/05/17 01:25:32;;;;;;;15.53;7.60;;;;;;;15.61;58.95;99370.00;125213;1102;104258;-77
2021/05/17 01:28:03;;;;;;;19.70;8.27;;;;;;;15.56;59.57;99377.08;125228;1102;101747;-77
2021/05/17 01:30:32;;;;;;;17.90;8.37;;;;;;;15.50;59.00;99361.23;125397;1102;104184;-77
2021/05/17 01:33:02;;;;;;;18.13;8.10;;;;;;;15.44;59.72;99357.72;125291;1102;104232;-77
2021/05/17 01:35:33;;;;;;;17.57;8.20;;;;;;;15.39;59.10;99361.25;125324;1099;104172;-77
2021/05/17 01:38:04;;;;;;;17.30;7.37;;;;;;;15.29;60.27;99352.47;126200;1099;104210;-76
2021/05/17 01:40:38;;;;;;;20.33;7.37;;;;;;;15.19;59.60;99355.99;125308;1099;104210;-76
2021/05/17 01:43:08;;;;;;;;;;;;;;;15.10;60.30;99355.13;125359;1099;104133;-76
2021/05/17 01:45:38;;;;;;;13.03;6.47;;;;;;;15.03;60.63;99356.00;126246;1099;104162;-76
2021/05/17 01:48:09;;;;;;;13.30;6.10;;;;;;;14.99;59.84;99358.65;126239;1098;104234;-76
2021/05/17 01:50:39;;;;;;;13.77;6.10;;;;;;;14.98;60.81;99359.55;125318;1099;105511;-77
2021/05/17 01:53:09;;;;;;;17.23;6.63;;;;;;;15.01;60.91;99364.84;125317;1099;104280;-76
2021/05/17 01:55:42;;;;;;;13.03;6.63;;;;;;;15.04;60.18;99370.12;125331;1099;104246;-76
2021/05/17 01:58:19;;;;;;;13.63;6.73;;;;;;;15.04;60.12;99370.98;125313;1102;104290;-76
2021/05/17 02:00:50;;;;;;;15.40;6.50;;;;;;;15.04;60.33;99373.63;125217;1101;104326;-76
2021/05/17 02:03:20;;;;;;;12.80;6.33;;;;;;;15.04;61.34;99378.05;125171;1102;104379;-76
2021/05/17 02:05:51;;;;;;;11.60;5.80;;;;;;;15.12;60.63;99375.40;125257;1102;101768;-76
2021/05/17 02:08:22;;;;;;;13.43;6.13;;;;;;;15.15;61.48;99385.97;125368;1102;104175;-76
2021/05/17 02:10:57;;;;;;;13.03;6.17;;;;;;;15.19;61.39;99392.98;125229;1102;104230;-76
2021/05/17 02:13:28;;;;;;;16.47;6.37;;;;;;;15.26;60.96;99384.19;125298;1102;104332;-76
2021/05/17 02:15:57;;;;;;;14.87;6.20;;;;;;;15.30;61.25;99383.27;125246;1102;104173;-76
2021/05/17 02:18:28;;;;;;;13.43;5.80;;;;;;;15.32;60.55;99372.70;125347;1102;104172;-76
2021/05/17 02:21:00;;;;;;;14.00;6.30;;;;;;;15.26;61.55;99379.77;125202;1102;104262;-76
2021/05/17 02:23:43;;;;;;;12.20;5.50;;;;;;;15.22;61.52;99374.48;125188;1102;104142;-77
2021/05/17 02:26:15;;;;;;;13.23;6.20;;;;;;;15.15;60.93;99370.98;125245;1102;104243;-77
2021/05/17 02:28:48;;;;;;;12.10;5.70;;;;;;;15.05;60.93;99370.12;125153;1102;104219;-76
2021/05/17 02:31:18;;;;;;;13.63;5.80;;;;;;;15.01;61.68;99363.06;125296;1102;104296;-76
2021/05/17 02:33:49;;;;;;;10.03;5.03;;;;;;;15.00;61.26;99361.29;125265;1102;105177;-76
2021/05/17 02:36:20;;;;;;;14.57;5.70;;;;;;;15.01;61.82;99372.77;125820;1099;104146;-77
2021/05/17 02:38:51;;;;;;;10.33;5.03;;;;;;;15.01;62.17;99365.70;126302;1099;104171;-77
2021/05/17 02:41:29;;;;;;;11.20;5.40;;;;;;;15.00;61.76;99352.50;126051;1098;104079;-76
2021/05/17 02:44:08;;;;;;;10.47;5.30;;;;;;;15.01;61.86;99347.21;126196;1099;104245;-76
2021/05/17 02:46:38;;;;;;;9.60;5.47;;;;;;;15.02;61.44;99340.16;125370;1102;104142;-76
2021/05/17 02:49:09;;;;;;;12.73;5.20;;;;;;;14.99;61.64;99330.49;126224;1099;104255;-76
2021/05/17 02:51:40;;;;;;;12.97;5.60;;;;;;;15.00;62.56;99334.88;125279;1099;104262;-76
2021/05/17 02:54:25;;;;;;;25.07;6.00;;;;;;;15.03;62.63;99324.30;125319;1099;104245;-76
2021/05/17 02:57:10;;;;;;;10.73;5.03;;;;;;;15.12;62.10;99331.35;126209;1099;104143;-76
2021/05/17 03:00:02;;;;;;;11.07;5.20;;;;;;;15.15;62.67;99333.98;125354;1102;104249;-76
2021/05/17 03:02:44;;;;;;;10.90;5.27;;;;;;;15.17;62.11;99326.06;125440;1100;106863;-77
2021/05/17 03:05:15;;;;;;;10.60;5.00;;;;;;;15.19;61.75;99326.92;126228;1099;104398;-76
2021/05/17 03:07:53;;;;;;;11.60;5.00;;;;;;;15.18;62.50;99322.55;125122;1099;104149;-77
2021/05/17 03:10:26;;;;;;;10.77;4.77;;;;;;;15.16;62.61;99319.00;125309;1101;104149;-76
2021/05/17 03:13:01;;;;;;;9.47;5.03;;;;;;;15.15;62.56;99323.42;125146;1099;104198;-76
2021/05/17 03:15:35;;;;;;;13.60;5.17;;;;;;;15.13;61.94;99322.55;125034;1100;104262;-77
2021/05/17 03:18:06;;;;;;;11.17;4.57;;;;;;;15.12;62.65;99323.42;125198;1102;104629;-77
2021/05/17 03:20:36;;;;;;;9.77;4.77;;;;;;;15.12;62.82;99322.55;126235;1099;104174;-77
2021/05/17 03:23:12;;;;;;;13.30;4.27;;;;;;;15.16;62.88;99321.65;125130;1102;104178;-77
2021/05/17 03:25:45;;;;;;;11.90;5.00;;;;;;;15.17;62.37;99324.29;125068;1099;104223;-76
2021/05/17 03:28:15;;;;;;;13.87;4.70;;;;;;;15.22;62.93;99329.56;125217;1099;102105;-76
2021/05/17 03:30:44;;;;;;;9.23;4.63;;;;;;;15.22;62.37;99322.54;125214;1099;104242;-76
2021/05/17 03:33:14;;;;;;;11.07;4.77;;;;;;;15.25;62.87;99324.27;125228;1099;104236;-76
2021/05/17 03:35:43;;;;;;;9.73;4.40;;;;;;;15.23;62.91;99318.13;125109;1100;104140;-76
2021/05/17 03:38:12;;;;;;;12.30;4.87;;;;;;;15.20;63.11;99320.77;125208;1099;104178;-76
2021/05/17 03:40:42;;;;;;;9.90;4.50;;;;;;;15.19;61.93;99319.00;125130;1099;104178;-76
2021/05/17 03:43:14;;;;;;;9.67;4.83;;;;;;;15.15;62.58;99320.78;125230;1099;104166;-76
2021/05/17 03:45:44;;;;;;;11.57;4.70;;;;;;;15.14;63.19;99328.70;125893;1099;104463;-77
2021/05/17 03:48:13;;;;;;;13.20;4.97;;;;;;;15.12;63.18;99338.41;126121;1099;104140;-77
2021/05/17 03:50:42;;;;;;;11.80;4.73;;;;;;;15.09;63.07;99350.72;125949;1099;104149;-77
2021/05/17 03:53:12;;;;;;;14.50;4.87;;;;;;;15.04;62.30;99352.49;125192;1099;104232;-77
2021/05/17 03:55:42;;;;;;;9.97;4.63;;;;;;;14.95;62.27;99352.50;125133;1102;104169;-77
2021/05/17 03:58:12;;;;;;;20.85;5.30;;;;;;;14.92;62.44;99355.14;125020;1100;104268;-76
2021/05/17 04:00:42;;;;;;;9.87;4.47;;;;;;;15.01;62.67;99360.42;125103;1099;104147;-77
2021/05/17 04:03:15;;;;;;;15.00;4.90;;;;;;;15.06;62.56;99358.64;125603;1099;104159;-78
2021/05/17 04:05:56;;;;;;;12.37;4.27;;;;;;;15.04;62.76;99367.48;125912;1099;104153;-78
2021/05/17 04:13:51;;;;;;;13.17;4.70;;;;;;;14.99;62.87;99366.58;125066;1099;104270;-77
2021/05/17 04:16:21;;;;;;;16.30;5.17;;;;;;;14.95;63.44;99370.98;126179;1099;104169;-77
2021/05/17 04:18:51;;;;;;;14.80;4.97;;;;;;;14.95;63.58;99373.63;126163;1099;104220;-78
2021/05/17 04:21:21;;;;;;;11.50;4.50;;;;;;;15.00;63.70;99376.27;126051;1099;104172;-78
2021/05/17 04:23:50;;;;;;;14.20;4.30;;;;;;;15.06;63.38;99382.42;126040;1099;104201;-78
2021/05/17 04:26:20;;;;;;;15.90;4.90;;;;;;;15.13;62.99;99383.33;126258;1099;104165;-77
2021/05/17 04:28:49;;;;;;;16.05;5.00;;;;;;;15.18;64.01;99381.55;126067;1099;104222;-77
2021/05/17 04:31:18;;;;;;;10.97;4.87;;;;;;;15.24;63.80;99381.55;125278;1099;104174;-77
2021/05/17 04:34:02;;;;;;;13.10;4.97;;;;;;;15.28;62.88;99388.56;125279;1099;104253;-78
2021/05/17 04:36:32;;;;;;;8.03;4.60;;;;;;;15.30;63.82;99390.34;125055;1102;104427;-78
2021/05/17 04:39:04;;;;;;;18.10;5.20;;;;;;;15.29;63.07;99386.83;125938;1099;104210;-79
2021/05/17 04:41:33;;;;;;;10.93;4.70;;;;;;;15.30;63.62;99377.98;125000;1099;104171;-78
2021/05/17 04:44:04;;;;;;;14.27;4.80;;;;;;;15.34;63.77;99382.40;125794;1099;104258;-78
2021/05/17 04:46:34;;;;;;;12.13;4.73;;;;;;;15.38;63.38;99383.27;125832;1099;104198;-77
2021/05/17 04:49:03;;;;;;;9.97;4.27;;;;;;;15.45;63.56;99385.03;125838;1098;104240;-78
2021/05/17 04:51:33;;;;;;;10.83;4.20;;;;;;;15.56;63.78;99383.23;125887;1099;104175;-76
2021/05/17 04:54:02;;;;;;;19.43;4.50;;;;;;;15.63;63.85;99386.77;125131;1102;104804;-77
2021/05/17 04:56:31;;;;;;;15.47;5.20;;;;;;;15.67;63.76;99385.84;125134;1101;104143;-77
2021/05/17 04:59:00;;;;;;;13.93;5.30;;;;;;;15.75;64.00;99384.09;125063;1102;104266;-77
2021/05/17 05:01:30;;;;;;;16.90;5.60;;;;;;;15.84;63.13;99390.25;124996;1102;104146;-76
2021/05/17 05:04:01;;;;;;;14.13;4.90;;;;;;;15.89;63.51;99386.69;125026;1101;104328;-76
2021/05/17 05:06:30;;;;;;;13.90;4.47;;;;;;;15.94;62.88;99389.31;125082;1102;104277;-76
2021/05/17 05:08:59;;;;;;;15.50;5.03;;;;;;;16.01;63.70;99391.06;125136;1102;104263;-76
2021/05/17 05:11:28;;;;;;;14.67;4.90;;;;;;;16.11;63.01;99387.50;125188;1102;104281;-76
2021/05/17 05:13:58;;;;;;;16.90;4.73;;;;;;;16.17;63.78;99399.80;124858;1102;104316;-79
2021/05/17 05:16:27;;;;;;;13.73;4.97;;;;;;;16.21;63.32;99395.40;125051;1102;104188;-76
2021/05/17 05:18:57;;;;;;;11.17;4.93;;;;;;;16.24;63.58;99398.90;125130;1102;104309;-76
2021/05/17 05:21:28;;;;;;;15.60;5.33;;;;;;;16.32;63.49;99396.21;125107;1101;104194;-78
2021/05/17 05:23:57;;;;;;;15.97;4.80;;;;;;;16.40;63.89;99406.77;125013;1102;104354;-78
2021/05/17 05:26:44;;;;;;;14.67;4.30;;;;;;;16.46;63.82;99399.66;125073;1102;105376;-78
2021/05/17 05:29:26;;;;;;;17.03;5.30;;;;;;;16.58;63.34;99414.60;124980;1102;104169;-76
2021/05/17 05:31:59;;;;;;;13.77;4.63;;;;;;;16.69;62.99;99414.53;124899;1102;104319;-79
2021/05/17 05:34:29;;;;;;;8.55;4.42;;;;;;;16.77;63.72;99417.14;124939;1099;104445;-78
2021/05/17 05:36:59;;;;;;;10.17;4.77;;;;;;;16.82;63.18;99418.84;124969;1099;104185;-77
2021/05/17 05:39:28;;;;;;;14.27;5.30;;;;;;;16.87;62.95;99422.36;124970;1099;104301;-80
2021/05/17 05:41:58;;;;;;;12.60;5.33;;;;;;;16.91;63.30;99422.34;124908;1102;105575;-77
2021/05/17 05:44:27;;;;;;;13.73;5.67;;;;;;;16.92;62.86;99424.98;124940;1099;104156;-78
2021/05/17 05:46:57;;;;;;;16.87;4.80;;;;;;;16.98;62.74;99413.47;124993;1102;104323;-80
2021/05/17 05:49:26;;;;;;;16.43;5.73;;;;;;;17.04;62.98;99421.37;124957;1102;104389;-79
2021/05/17 05:51:59;;;;;;;15.30;4.80;;;;;;;17.12;62.74;99416.88;124964;1102;104521;-79
2021/05/17 05:54:30;;;;;;;15.67;5.47;;;;;;;17.19;62.77;99407.13;125129;1103;104155;-81
2021/05/17 05:57:03;;;;;;;18.20;4.90;;;;;;;17.32;62.72;99410.53;124993;1102;104163;-83
2021/05/17 05:59:41;;;;;;;16.27;4.83;;;;;;;17.37;63.02;99414.91;125032;1103;102122;-83
2021/05/17 06:02:14;;;;;;;15.77;4.67;;;;;;;17.47;62.88;99420.09;124702;1102;104299;-81
2021/05/17 06:04:45;;;;;;;20.10;4.90;;;;;;;17.63;63.12;99416.41;124734;1102;104182;-80
2021/05/17 06:07:18;;;;;;;12.20;4.67;;;;;;;17.68;62.92;99411.06;124721;1102;104333;-81
2021/05/17 06:10:00;;;;;;;12.97;4.63;;;;;;;17.69;62.74;99419.00;124756;1102;104223;-81
2021/05/17 06:12:43;;;;;;;13.33;5.27;;;;;;;17.73;62.59;99420.73;124766;1102;104319;-82
2021/05/17 06:15:18;;;;;;;13.70;4.80;;;;;;;17.69;62.33;99416.35;124771;1105;104306;-79
2021/05/17 06:17:50;;;;;;;9.73;4.50;;;;;;;17.77;62.44;99424.23;124857;1102;104293;-80
2021/05/17 06:20:38;;;;;;;13.17;4.63;;;;;;;17.84;62.43;99423.28;125025;1102;104275;-79
2021/05/17 06:23:25;;;;;;;15.67;4.60;;;;;;;17.93;62.58;99425.83;125384;1102;102319;-79
2021/05/17 06:25:59;;;;;;;10.37;4.80;;;;;;;17.99;62.30;99431.98;124789;1102;104165;-79
2021/05/17 06:32:05;;;;;;;13.33;4.73;;;;;;;18.18;62.56;99416.70;125170;1102;104208;-84
2021/05/17 06:34:40;;;;;;;20.47;5.43;;;;;;;18.31;62.00;99415.66;125172;1103;104200;-82
2021/05/17 06:37:15;;;;;;;16.30;5.50;;;;;;;18.42;61.97;99419.05;125258;1102;104146;-81
2021/05/17 06:40:00;;;;;;;13.43;5.07;;;;;;;18.61;62.03;99409.03;125409;1102;104290;-80
2021/05/17 06:42:41;;;;;;;17.20;5.10;;;;;;;18.87;61.85;99413.13;124962;1102;103118;-80
2021/05/17 06:45:15;;;;;;;12.00;4.60;;;;;;;19.10;62.31;99412.73;124828;1102;104179;-80
2021/05/17 06:47:48;;;;;;;18.53;5.13;;;;;;;19.21;61.52;99405.47;125117;1102;104329;-81
2021/05/17 06:50:21;;;;;;;12.15;4.80;;;;;;;19.40;62.16;99413.13;125067;1102;104155;-80
2021/05/17 06:52:58;;;;;;;17.37;5.47;;;;;;;19.61;62.13;99409.19;125072;1101;104165;-80
2021/05/17 06:55:36;;;;;;;13.00;5.03;;;;;;;19.80;61.46;99408.88;125072;1102;104194;-83
2021/05/17 06:58:20;;;;;;;14.47;5.10;;;;;;;19.89;61.69;99412.22;125180;1102;102767;-82
2021/05/17 07:01:00;;;;;;;16.17;5.67;;;;;;;19.99;61.28;99410.27;125029;1106;104345;-81
2021/05/17 07:03:40;;;;;;;;;;;;;;;19.99;60.67;99415.60;124713;1105;104233;-82
2021/05/17 07:06:23;;;;;;;14.10;5.43;;;;;;;20.02;61.32;99412.84;124900;1102;104268;-81
2021/05/17 07:11:55;;;;;;;15.00;5.10;;;;;;;20.20;60.25;99416.06;124947;1102;104262;-82
2021/05/17 07:14:36;;;;;;;18.45;5.78;;;;;;;20.31;60.66;99416.70;125030;1102;104258;-80
2021/05/17 07:17:19;;;;;;;15.87;5.13;;;;;;;20.42;60.04;99409.34;124840;1102;102241;-82
2021/05/17 07:19:53;;;;;;;16.50;4.80;;;;;;;20.62;60.72;99413.36;125188;1102;102455;-82
2021/05/17 07:25:27;;;;;;;15.20;5.83;;;;;;;21.10;59.96;99401.58;125832;1099;104220;-81
2021/05/17 07:28:04;;;;;;;15.37;5.47;;;;;;;21.27;59.63;99406.48;125046;1102;104206;-81
2021/05/17 07:30:46;;;;;;;33.10;15.87;;;;;;;21.46;59.48;99405.11;124989;1099;104201;-80
2021/05/17 07:33:19;;;;;;;18.57;6.43;;;;;;;21.59;59.81;99403.01;124948;1102;104275;-81
2021/05/17 07:35:49;;;;;;;20.00;5.30;;;;;;;21.67;59.43;99400.13;125620;1099;104178;-81
2021/05/17 07:38:29;;;;;;;22.00;6.40;;;;;;;21.68;59.34;99402.76;124916;1099;104303;-81
2021/05/17 07:41:02;;;;;;;13.53;5.43;;;;;;;21.66;58.64;99403.71;124985;1099;104201;-82
2021/05/17 07:43:51;;;;;;;13.87;5.73;;;;;;;21.61;58.77;99400.30;125104;1102;104319;-80
2021/05/17 07:46:24;;;;;;;15.20;6.40;;;;;;;21.64;58.71;99402.88;125145;1102;104178;-80
2021/05/17 07:52:23;;;;;;;16.30;5.73;;;;;;;21.70;58.27;99400.05;125333;1102;104402;-81
2021/05/17 07:54:58;;;;;;;14.20;5.27;;;;;;;21.73;57.72;99395.49;125209;1102;104185;-79
2021/05/17 07:57:35;;;;;;;15.53;5.80;;;;;;;21.83;57.79;99401.47;124988;1102;104169;-80
2021/05/17 08:00:17;;;;;;;13.90;5.40;;;;;;;21.86;57.36;99385.37;125134;1102;104210;-81
2021/05/17 08:03:19;;;;;;;14.20;6.00;;;;;;;21.97;57.58;99393.08;125239;1102;105043;-79
2021/05/17 08:05:56;;;;;;;15.27;5.60;;;;;;;22.14;57.75;99387.21;124986;1102;104219;-81
2021/05/17 08:08:40;;;;;;;12.77;5.57;;;;;;;22.31;57.30;99386.74;124680;1102;104198;-79
2021/05/17 08:11:35;;;;;;;10.13;5.20;;;;;;;22.37;57.07;99380.34;124910;1102;102336;-80
2021/05/17 08:14:20;;;;;;;18.43;5.80;;;;;;;22.55;57.00;99379.78;125167;1102;104201;-81
2021/05/17 08:16:57;;;;;;;11.80;5.10;;;;;;;22.64;56.90;99383.08;124971;1102;104179;-79
2021/05/17 08:20:13;;;;;;;15.50;5.20;;;;;;;22.78;56.37;99370.14;125310;1102;104153;-81
2021/05/17 08:23:22;;;;;;;13.83;4.83;;;;;;;22.88;56.51;99366.25;125373;1102;104210;-80
2021/05/17 08:28:56;;;;;;;11.07;5.03;;;;;;;23.27;56.36;99357.83;124883;1103;104161;-79
2021/05/17 08:31:30;;;;;;;10.45;5.00;;;;;;;23.40;56.33;99352.91;125185;1102;104238;-78
2021/05/17 08:34:03;;;;;;;17.60;5.20;;;;;;;23.53;55.61;99349.80;124996;1102;104178;-78
2021/05/17 08:36:33;;;;;;;11.10;4.70;;;;;;;23.56;55.10;99355.94;125114;1102;104204;-81
2021/05/17 08:39:09;;;;;;;12.20;4.87;;;;;;;23.62;55.11;99354.83;124989;1102;104181;-78
2021/05/17 08:41:44;;;;;;;13.27;5.13;;;;;;;23.58;54.92;99348.72;125785;1099;104166;-77
2021/05/17 08:44:15;;;;;;;13.40;5.33;;;;;;;23.56;54.62;99347.91;125719;1099;104185;-78
2021/05/17 08:46:49;;;;;;;10.73;4.70;;;;;;;23.55;54.80;99346.15;125601;1099;104160;-79
2021/05/17 08:49:20;;;;;;;12.40;5.07;;;;;;;23.55;54.55;99338.12;125316;1099;104262;-80
2021/05/17 08:51:51;;;;;;;18.40;5.23;;;;;;;23.64;54.40;99334.24;124919;1099;104166;-78
2021/05/17 08:54:26;;;;;;;9.20;4.33;;;;;;;23.72;54.16;99331.25;124919;1099;104207;-78
2021/05/17 08:57:00;;;;;;;14.13;4.80;;;;;;;23.81;53.48;99334.48;125034;1102;104326;-80
2021/05/17 08:59:35;;;;;;;11.73;3.97;;;;;;;23.89;53.53;99334.23;125019;1102;105469;-78
2021/05/17 09:02:05;;;;;;;11.80;4.33;;;;;;;23.87;52.76;99325.36;125048;1099;104156;-78
2021/05/17 09:04:37;;;;;;;6.33;3.77;;;;;;;23.94;53.10;99323.34;124920;1102;104175;-78
2021/05/17 09:07:08;;;;;;;11.73;3.97;;;;;;;24.09;52.93;99322.77;125710;1099;104176;-79
2021/05/17 09:09:40;;;;;;;6.63;3.93;;;;;;;24.30;52.52;99320.16;125974;1099;104212;-78
2021/05/17 09:12:15;;;;;;;13.47;4.60;;;;;;;24.40;52.74;99317.06;124910;1099;104263;-78
2021/05/17 09:14:56;;;;;;;6.80;4.03;;;;;;;24.50;51.98;99305.97;124999;1102;104287;-80
2021/05/17 09:17:34;;;;;;;12.73;4.00;;;;;;;24.49;51.26;99309.57;124876;1099;104214;-78
2021/05/17 09:20:25;;;;;;;10.07;3.90;;;;;;;24.41;51.88;99301.84;125234;1099;104356;-80
2021/05/17 09:23:19;;;;;;;8.17;4.20;;;;;;;24.43;51.46;99301.77;125636;1099;104216;-81
2021/05/17 09:26:02;;;;;;;20.93;4.27;;;;;;;24.47;51.33;99292.69;125736;1099;104174;-81
2021/05/17 09:28:35;;;;;;;10.43;3.53;;;;;;;24.63;51.22;99293.81;125889;1099;104271;-80
2021/05/17 09:31:40;;;;;;;14.60;4.45;;;;;;;24.89;51.04;99286.50;125062;1099;104259;-81
2021/05/17 09:34:11;;;;;;;11.37;4.00;;;;;;;24.99;50.09;99290.52;125000;1102;104172;-81
2021/05/17 09:36:41;;;;;;;17.33;5.00;;;;;;;25.03;50.70;99286.77;124887;1102;104682;-80
2021/05/17 09:39:15;;;;;;;14.60;5.60;;;;;;;25.16;49.88;99286.23;124895;1099;104422;-78
2021/05/17 09:41:49;;;;;;;14.53;5.87;;;;;;;25.05;49.09;99279.52;125035;1099;104195;-79
2021/05/17 09:44:25;;;;;;;13.20;5.50;;;;;;;24.80;48.73;99278.84;125653;1099;104264;-80
2021/05/17 09:47:08;;;;;;;18.73;5.37;;;;;;;24.61;49.14;99284.97;124879;1102;104178;-81
2021/05/17 09:49:45;;;;;;;15.77;6.03;;;;;;;24.58;49.08;99277.05;125380;1102;102431;-81
2021/05/17 09:52:28;;;;;;;11.57;5.33;;;;;;;24.75;49.14;99276.34;124904;1102;104414;-82
2021/05/17 09:55:03;;;;;;;15.27;5.10;;;;;;;24.95;48.75;99278.19;124880;1102;104062;-81
2021/05/17 09:57:37;;;;;;;14.00;4.93;;;;;;;25.08;48.96;99274.02;124852;1100;104415;-82
2021/05/17 10:00:16;;;;;;;13.10;4.87;;;;;;;25.23;49.07;99275.16;124857;1102;102716;-80
2021/05/17 10:02:48;;;;;;;14.27;5.50;;;;;;;25.34;48.80;99281.88;126222;1102;102602;-83
2021/05/17 10:05:26;;;;;;;16.57;5.50;;;;;;;25.33;48.52;99280.16;126226;1102;102118;-80
2021/05/17 10:07:59;;;;;;;17.00;5.50;;;;;;;25.16;48.37;99284.42;126281;1101;101680;-82
2021/05/17 10:10:32;;;;;;;13.17;4.87;;;;;;;25.08;48.24;99274.02;126300;1102;101982;-80
2021/05/17 10:13:06;;;;;;;15.18;4.45;;;;;;;24.98;48.35;99280.73;126285;1102;101794;-81
2021/05/17 10:15:37;;;;;;;12.13;4.27;;;;;;;24.89;48.03;99278.45;126232;1102;102877;-80
2021/05/17 10:18:10;;;;;;;11.10;4.10;;;;;;;24.72;47.98;99295.25;125928;1102;101972;-81
2021/05/17 10:20:43;;;;;;;13.97;4.53;;;;;;;24.41;48.24;99297.34;124864;1099;104458;-79
2021/05/17 10:23:14;;;;;;;19.67;6.13;;;;;;;23.79;48.32;99306.00;125572;1099;104172;-80
2021/05/17 10:25:48;;;;;;;21.07;5.20;;;;;;;22.92;48.91;99308.17;124902;1102;104172;-79
2021/05/17 10:28:42;;;;;;;13.80;5.40;;;;;;;22.32;50.03;99318.16;124906;1102;104217;-79
2021/05/17 10:31:31;;;;;;;21.60;6.47;;;;;;;21.86;51.43;99310.59;124901;1102;104213;-82
2021/05/17 10:34:13;;;;;;;20.00;5.77;;;;;;;21.37;50.85;99312.82;124704;1102;104449;-78
2021/05/17 10:37:07;;;;;;;23.35;7.20;;;;;;;21.02;51.66;99300.45;124753;1102;104278;-79
2021/05/17 10:40:16;;;;;;;;;;;;;;;;;;;;;
2021/05/17 10:42:58;;;;;;;26.47;8.13;;;;;;;20.40;52.80;99303.74;124793;1103;104176;-80
2021/05/17 10:48:23;;;;;;;;;;;;;;;20.03;55.23;99313.43;125076;1102;102448;-81
2021/05/17 10:54:01;;;;;;;12.60;4.33;;;;;;;19.77;55.64;99315.78;124995;1102;104171;-80
2021/05/17 10:57:01;;;;;;;11.60;4.10;;;;;;;19.58;55.49;99313.45;124865;1103;104328;-80
2021/05/17 11:03:20;;;;;;;12.77;4.43;;;;;;;19.26;56.33;99306.09;124944;1102;104172;-82
2021/05/17 11:05:57;;;;;;;12.03;4.20;;;;;;;19.15;56.11;99306.30;124873;1102;104265;-80
2021/05/17 11:08:33;;;;;;;8.40;3.50;;;;;;;19.08;56.01;99294.03;125297;1102;101793;-83
2021/05/17 11:11:08;;;;;;;6.53;3.33;;;;;;;18.98;56.30;99304.84;124727;1105;104201;-81
2021/05/17 11:13:51;;;;;;;7.80;3.77;;;;;;;18.91;56.58;99300.52;124729;1102;108117;-82
2021/05/17 11:16:34;;;;;;;7.13;3.10;;;;;;;18.74;56.99;99310.53;124737;1102;102311;-81
2021/05/17 11:19:36;;;;;;;5.27;2.80;;;;;;;18.55;56.92;99310.83;125440;1102;104149;-81
2021/05/17 11:22:55;;;;;;;9.40;3.23;;;;;;;18.45;57.02;99303.89;124924;1106;102083;-81
2021/05/17 11:25:53;;;;;;;6.30;3.43;;;;;;;18.41;57.32;99292.45;124770;1106;104281;-82
2021/05/17 11:28:51;;;;;;;6.43;3.13;;;;;;;18.39;58.08;99298.70;124889;1102;104326;-82
2021/05/17 11:31:44;;;;;;;9.80;3.70;;;;;;;18.35;58.23;99297.86;124759;1105;104162;-80
2021/05/17 11:34:35;;;;;;;9.50;4.23;;;;;;;18.33;58.33;99302.32;124864;1106;111329;-82
2021/05/17 11:37:19;;;;;;;9.20;3.37;;;;;;;18.35;59.19;99307.61;124687;1105;104226;-80
2021/05/17 11:39:55;;;;;;;9.10;4.00;;;;;;;18.35;59.12;99310.27;124705;1105;104196;-80
2021/05/17 11:42:36;;;;;;;14.13;4.20;;;;;;;18.38;59.02;99305.78;124789;1103;104207;-82
2021/05/17 11:45:26;;;;;;;10.73;3.93;;;;;;;18.43;59.35;99308.36;124953;1102;104172;-81
2021/05/17 11:48:08;;;;;;;9.43;4.50;;;;;;;18.46;58.87;99287.94;124975;1102;104297;-82
2021/05/17 11:50:51;;;;;;;13.90;5.30;;;;;;;18.52;59.22;99284.31;125010;1102;104310;-81
2021/05/17 11:53:23;;;;;;;12.73;4.13;;;;;;;18.66;59.45;99284.95;125141;1102;104152;-80
2021/05/17 11:55:58;;;;;;;13.10;4.40;;;;;;;18.80;60.33;99270.57;124838;1102;104329;-81
2021/05/17 11:58:27;;;;;;;12.10;4.27;;;;;;;18.93;59.70;99280.12;125646;1099;104277;-80
2021/05/17 12:01:29;;;;;;;13.27;4.97;;;;;;;19.14;60.35;99283.29;125767;1099;104299;-80
2021/05/17 12:04:16;;;;;;;15.10;5.50;;;;;;;19.39;59.98;99292.53;125582;1102;104290;-80
2021/05/17 12:07:00;;;;;;;11.47;4.70;;;;;;;19.63;60.24;99289.41;124818;1102;117915;-81
2021/05/17 12:10:03;;;;;;;14.33;5.25;;;;;;;19.86;60.17;99284.51;124772;1102;104181;-80
2021/05/17 12:12:51;;;;;;;11.73;5.27;;;;;;;20.22;59.99;99276.59;124883;1102;104242;-81
2021/05/17 12:15:23;;;;;;;9.68;4.80;;;;;;;20.59;60.45;99280.19;124909;1102;104245;-79
2021/05/17 12:17:54;;;;;;;10.70;5.20;;;;;;;20.77;60.37;99271.77;125005;1105;103369;-80
2021/05/17 12:20:27;;;;;;;12.43;5.20;;;;;;;20.88;60.62;99267.92;125641;1105;102878;-80
2021/05/17 12:23:05;;;;;;;13.97;4.77;;;;;;;21.07;60.93;99268.34;125153;1102;101984;-82